Lawn Ridge, Illinois
Current Conditions -  °F | °C
As of 2:55 PM on Tuesday 27 Jan 2015 (Local Time) from KC75 Reporting Station
Overcast Overcast  
Wind Chill: -1°   Ceiling: 1500
Heat Index: -1°   Visibility: 10mi
Dew Point: -4°   Wind: 0mph
Humidity: 79%   Direction: NA
Pressure: 30.21"   Gusts: NA
Location:  40.9686°N, 89.597°W
Report Text: KC75 272055Z AUTO 00000KT 10SM OVC015 M01/M04 A3021 RMK AO2 T10111044
Loading
Personal Weather Stations






























Interactive Weather Map New forecast layout! Learn more

10-Day Weather Forecast

Advertisements
Track Severe Weather on mobile